Time;durP1;ratioP1;P1;durP2;ratioP2;P2;SDS_P1;SDS_P2;PMS_P1;PMS_P2;Temp;Humidity;BMP_temperature;BMP_pressure;BME280_temperature;BME280_humidity;BME280_pressure;Samples;Min_cycle;Max_cycle;Signal;HPM_P1;HPM_P2
2022/08/04 00:01:18;;;;;;;7.30;3.03;;;;;;;;;;5058138;28;20959;-17
2022/08/04 00:03:48;;;;;;;5.55;3.00;;;;;;;;;;5069965;28;20234;-17
2022/08/04 00:06:17;;;;;;;4.80;3.15;;;;;;;;;;5071934;28;20235;-17
2022/08/04 00:08:45;;;;;;;7.85;2.92;;;;;;;;;;5060794;28;20324;-17
2022/08/04 00:11:14;;;;;;;5.20;2.92;;;;;;;;;;5072752;28;20336;-17
2022/08/04 00:13:42;;;;;;;4.53;2.80;;;;;;;;;;5072089;28;20230;-17
2022/08/04 00:16:29;;;;;;;8.90;3.15;;;;;;;;;;5070990;28;20320;-17
2022/08/04 00:19:05;;;;;;;7.53;3.10;;;;;;;;;;5066507;28;20408;-17
2022/08/04 00:21:34;;;;;;;6.57;3.15;;;;;;;;;;5071711;28;20332;-17
2022/08/04 00:24:01;;;;;;;6.38;2.85;;;;;;;;;;5072001;28;20636;-17
2022/08/04 00:26:38;;;;;;;4.43;2.95;;;;;;;;;;5062853;28;20233;-17
2022/08/04 00:29:06;;;;;;;5.25;3.20;;;;;;;;;;5070927;28;20230;-17
2022/08/04 00:31:33;;;;;;;6.25;3.15;;;;;;;;;;5060663;28;20240;-17
2022/08/04 00:34:23;;;;;;;5.85;3.10;;;;;;;;;;5072120;28;20249;-17
2022/08/04 00:36:50;;;;;;;6.53;3.28;;;;;;;;;;5071829;28;20697;-17
2022/08/04 00:39:18;;;;;;;5.53;3.22;;;;;;;;;;5071813;28;20837;-17
2022/08/04 00:41:49;;;;;;;4.88;3.25;;;;;;;;;;5062419;28;20229;-17
2022/08/04 00:44:26;;;;;;;4.68;3.40;;;;;;;;;;5071925;28;20233;-17
2022/08/04 00:46:58;;;;;;;5.97;3.35;;;;;;;;;;5061490;28;20339;-17
2022/08/04 00:49:31;;;;;;;5.88;3.38;;;;;;;;;;5071625;28;20225;-17
2022/08/04 00:52:01;;;;;;;7.35;3.20;;;;;;;;;;5068657;28;20292;-17
2022/08/04 00:54:54;;;;;;;10.20;3.88;;;;;;;;;;5067267;28;20229;-17
2022/08/04 00:57:27;;;;;;;4.70;3.15;;;;;;;;;;5072103;28;20419;-17
2022/08/04 01:00:05;;;;;;;4.07;3.30;;;;;;;;;;5071455;28;20304;-17
2022/08/04 01:02:35;;;;;;;10.55;3.72;;;;;;;;;;5038544;28;20600;-17
2022/08/04 01:05:05;;;;;;;3.90;3.42;;;;;;;;;;5057715;28;20234;-17
2022/08/04 01:07:53;;;;;;;7.60;3.80;;;;;;;;;;5045508;28;20256;-17
2022/08/04 01:10:23;;;;;;;13.40;4.20;;;;;;;;;;5038268;28;20226;-17
2022/08/04 01:13:17;;;;;;;7.80;3.53;;;;;;;;;;5057623;28;20238;-17
2022/08/04 01:15:45;;;;;;;7.93;3.35;;;;;;;;;;5030625;28;20233;-17
2022/08/04 01:18:28;;;;;;;6.15;3.22;;;;;;;;;;5071605;28;20319;-17
2022/08/04 01:21:01;;;;;;;8.23;3.88;;;;;;;;;;5070582;28;20720;-17
2022/08/04 01:23:45;;;;;;;5.50;3.70;;;;;;;;;;5070980;28;20979;-17
2022/08/04 01:26:43;;;;;;;5.65;4.00;;;;;;;;;;5055589;28;20233;-17
2022/08/04 01:29:26;;;;;;;5.30;3.78;;;;;;;;;;5008232;28;20243;-17
2022/08/04 01:32:12;;;;;;;4.32;3.45;;;;;;;;;;5067146;28;20233;-17
2022/08/04 01:34:41;;;;;;;9.30;4.28;;;;;;;;;;5070970;28;20244;-17
2022/08/04 01:37:11;;;;;;;6.05;4.00;;;;;;;;;;5066490;28;20234;-17
2022/08/04 01:39:41;;;;;;;10.18;4.20;;;;;;;;;;5071143;28;20237;-17
2022/08/04 01:42:09;;;;;;;10.25;4.25;;;;;;;;;;5071091;28;20267;-19
2022/08/04 01:44:38;;;;;;;6.95;3.83;;;;;;;;;;5071266;28;20233;-17
2022/08/04 01:47:05;;;;;;;6.38;3.47;;;;;;;;;;5059407;28;20863;-17
2022/08/04 01:49:33;;;;;;;5.25;3.40;;;;;;;;;;5070807;28;20235;-17
2022/08/04 01:52:10;;;;;;;7.97;3.40;;;;;;;;;;5070687;28;20229;-17
2022/08/04 01:54:38;;;;;;;8.35;4.32;;;;;;;;;;5057201;28;20240;-17
2022/08/04 01:57:06;;;;;;;5.70;3.38;;;;;;;;;;5070026;28;20233;-17
2022/08/04 01:59:55;;;;;;;6.30;4.10;;;;;;;;;;5055679;28;20234;-17
2022/08/04 02:02:22;;;;;;;7.47;4.30;;;;;;;;;;5058328;28;20291;-17
2022/08/04 02:04:50;;;;;;;3.85;3.45;;;;;;;;;;5070533;28;20754;-17
2022/08/04 02:07:20;;;;;;;8.48;3.58;;;;;;;;;;5070918;28;20232;-17
2022/08/04 02:09:52;;;;;;;7.20;3.92;;;;;;;;;;5068100;28;20236;-17
2022/08/04 02:12:24;;;;;;;7.57;3.97;;;;;;;;;;5069831;28;20249;-17
2022/08/04 02:14:57;;;;;;;6.30;3.63;;;;;;;;;;5070485;28;20244;-17
2022/08/04 02:17:26;;;;;;;7.22;3.83;;;;;;;;;;5069436;28;20229;-17
2022/08/04 02:19:59;;;;;;;7.85;4.13;;;;;;;;;;5069442;28;20896;-17
2022/08/04 02:22:26;;;;;;;4.53;3.05;;;;;;;;;;5064438;28;20249;-17
2022/08/04 02:24:56;;;;;;;7.45;3.60;;;;;;;;;;5070038;28;20232;-17
2022/08/04 02:27:25;;;;;;;9.93;3.40;;;;;;;;;;5070862;28;20226;-17
2022/08/04 02:29:54;;;;;;;10.57;4.10;;;;;;;;;;5056619;28;20230;-17
2022/08/04 02:32:25;;;;;;;6.25;4.00;;;;;;;;;;5049532;28;20234;-16
2022/08/04 02:34:53;;;;;;;8.13;3.30;;;;;;;;;;5049720;28;20233;-17
2022/08/04 02:37:21;;;;;;;6.18;3.47;;;;;;;;;;5047716;28;20964;-17
2022/08/04 02:39:49;;;;;;;9.50;3.47;;;;;;;;;;5047968;28;20234;-17
2022/08/04 02:42:17;;;;;;;8.98;3.97;;;;;;;;;;5050041;28;20341;-17
2022/08/04 02:44:45;;;;;;;9.75;3.50;;;;;;;;;;5051301;28;20230;-17
2022/08/04 02:47:13;;;;;;;9.77;3.85;;;;;;;;;;5051613;28;20222;-17
2022/08/04 02:49:41;;;;;;;7.05;3.50;;;;;;;;;;5052734;28;20234;-17
2022/08/04 02:52:09;;;;;;;7.22;3.33;;;;;;;;;;5060044;28;20722;-18
2022/08/04 02:54:38;;;;;;;5.63;3.40;;;;;;;;;;5066360;28;20607;-17
2022/08/04 02:57:07;;;;;;;10.00;3.45;;;;;;;;;;5073309;28;20230;-16
2022/08/04 02:59:39;;;;;;;6.70;3.30;;;;;;;;;;5072922;28;20226;-17
2022/08/04 03:02:06;;;;;;;6.95;3.60;;;;;;;;;;5064281;28;20249;-17
2022/08/04 03:04:45;;;;;;;6.30;3.70;;;;;;;;;;5060836;28;20234;-17
2022/08/04 03:07:31;;;;;;;9.05;3.55;;;;;;;;;;5073326;28;20225;-17
2022/08/04 03:10:17;;;;;;;8.50;3.20;;;;;;;;;;5073292;28;20859;-17
2022/08/04 03:13:14;;;;;;;7.97;3.33;;;;;;;;;;5073475;28;20326;-17
2022/08/04 03:15:49;;;;;;;6.95;3.05;;;;;;;;;;4992960;28;20232;-17
2022/08/04 03:18:35;;;;;;;8.73;3.00;;;;;;;;;;5056902;28;20237;-17
2022/08/04 03:21:30;;;;;;;7.47;3.80;;;;;;;;;;5068924;28;20992;-17
2022/08/04 03:24:08;;;;;;;12.10;4.03;;;;;;;;;;5036935;28;20233;-17
2022/08/04 03:26:48;;;;;;;6.55;3.40;;;;;;;;;;5059393;28;20229;-17
2022/08/04 03:29:20;;;;;;;11.15;3.58;;;;;;;;;;5046497;28;20225;-17
2022/08/04 03:32:09;;;;;;;13.20;3.25;;;;;;;;;;5072759;28;21027;-17
2022/08/04 03:34:50;;;;;;;8.77;3.60;;;;;;;;;;5072581;28;20238;-17
2022/08/04 03:37:27;;;;;;;6.93;3.10;;;;;;;;;;5065815;28;20225;-17
2022/08/04 03:40:05;;;;;;;9.02;3.55;;;;;;;;;;5072815;28;20235;-17
2022/08/04 03:43:01;;;;;;;7.75;3.15;;;;;;;;;;5072507;28;20344;-17
2022/08/04 03:45:52;;;;;;;8.15;3.17;;;;;;;;;;5012351;28;20236;-17
2022/08/04 03:48:34;;;;;;;7.53;2.72;;;;;;;;;;5062379;28;20238;-17
2022/08/04 03:54:08;;;;;;;15.90;4.35;;;;;;;;;;5072586;28;21105;-17
2022/08/04 03:56:49;;;;;;;7.72;2.88;;;;;;;;;;5072159;28;20236;-17
2022/08/04 03:59:18;;;;;;;8.82;3.13;;;;;;;;;;5064105;28;20222;-17
2022/08/04 04:02:07;;;;;;;8.73;3.20;;;;;;;;;;5059791;28;20244;-17
2022/08/04 04:04:42;;;;;;;6.55;3.00;;;;;;;;;;5034554;28;20230;-17
2022/08/04 04:07:19;;;;;;;8.60;3.67;;;;;;;;;;5052167;28;20234;-17
2022/08/04 04:10:03;;;;;;;12.93;3.60;;;;;;;;;;5050727;28;20314;-17
2022/08/04 04:12:46;;;;;;;6.45;2.95;;;;;;;;;;5052257;28;20223;-18
2022/08/04 04:15:28;;;;;;;10.13;3.38;;;;;;;;;;5052296;28;20229;-17
2022/08/04 04:18:11;;;;;;;9.57;2.90;;;;;;;;;;5049538;28;20229;-18
2022/08/04 04:20:59;;;;;;;5.53;2.50;;;;;;;;;;5051695;28;20226;-18
2022/08/04 04:23:37;;;;;;;9.25;2.47;;;;;;;;;;5050825;28;21096;-17
2022/08/04 04:26:15;;;;;;;9.27;2.80;;;;;;;;;;5043956;28;20269;-18
2022/08/04 04:28:52;;;;;;;7.38;2.78;;;;;;;;;;5056167;28;20332;-16
2022/08/04 04:31:34;;;;;;;9.52;2.97;;;;;;;;;;5053489;28;20317;-17
2022/08/04 04:34:06;;;;;;;12.90;3.15;;;;;;;;;;5047145;28;20837;-18
2022/08/04 04:36:35;;;;;;;8.75;2.95;;;;;;;;;;5051411;28;20234;-17
2022/08/04 04:39:03;;;;;;;10.10;2.75;;;;;;;;;;5051413;28;20237;-17
2022/08/04 04:41:42;;;;;;;11.20;2.85;;;;;;;;;;5051207;28;20984;-17
2022/08/04 04:44:28;;;;;;;12.43;3.28;;;;;;;;;;5055940;28;20691;-17
2022/08/04 04:47:01;;;;;;;9.77;2.67;;;;;;;;;;5053069;28;20241;-17
2022/08/04 04:49:29;;;;;;;9.85;3.60;;;;;;;;;;5057923;28;20245;-17
2022/08/04 04:51:58;;;;;;;6.75;2.70;;;;;;;;;;5050594;28;20715;-17
2022/08/04 04:54:32;;;;;;;18.08;3.80;;;;;;;;;;5050134;28;20230;-18
2022/08/04 04:57:05;;;;;;;10.73;2.95;;;;;;;;;;5046485;28;20245;-17
2022/08/04 04:59:34;;;;;;;11.05;3.03;;;;;;;;;;5041694;28;21011;-17
2022/08/04 05:02:16;;;;;;;15.80;3.00;;;;;;;;;;5042416;28;20237;-17
2022/08/04 05:04:59;;;;;;;14.63;3.47;;;;;;;;;;5019956;28;20233;-18
2022/08/04 05:07:45;;;;;;;10.55;3.08;;;;;;;;;;5049000;28;20706;-18
2022/08/04 05:10:17;;;;;;;15.15;3.05;;;;;;;;;;5045265;28;20226;-17
2022/08/04 05:12:58;;;;;;;15.38;3.00;;;;;;;;;;5050992;28;21005;-17
2022/08/04 05:15:46;;;;;;;9.60;3.22;;;;;;;;;;5046917;28;20237;-18
2022/08/04 05:18:14;;;;;;;13.88;3.10;;;;;;;;;;5067408;28;21101;-18
2022/08/04 05:20:43;;;;;;;12.65;2.75;;;;;;;;;;5060124;28;20241;-17
2022/08/04 05:23:12;;;;;;;11.77;2.88;;;;;;;;;;5050264;28;20238;-17
2022/08/04 05:25:41;;;;;;;12.75;2.83;;;;;;;;;;5051134;28;20234;-17
2022/08/04 05:28:21;;;;;;;21.63;3.65;;;;;;;;;;5047160;28;20296;-17
2022/08/04 05:30:50;;;;;;;13.73;3.47;;;;;;;;;;5040194;28;20271;-17
2022/08/04 05:33:18;;;;;;;21.15;3.25;;;;;;;;;;5051026;28;20234;-17
2022/08/04 05:35:49;;;;;;;11.30;2.85;;;;;;;;;;5050674;28;20333;-17
2022/08/04 05:38:37;;;;;;;15.20;2.90;;;;;;;;;;5050553;28;21009;-17
2022/08/04 05:41:05;;;;;;;12.73;3.05;;;;;;;;;;5057929;28;20229;-17
2022/08/04 05:43:33;;;;;;;11.13;3.45;;;;;;;;;;5068781;28;20299;-17
2022/08/04 05:46:00;;;;;;;10.48;2.92;;;;;;;;;;5062966;28;20285;-17
2022/08/04 05:48:28;;;;;;;10.30;3.05;;;;;;;;;;5063400;28;20234;-16
2022/08/04 05:50:57;;;;;;;10.65;3.40;;;;;;;;;;5059392;28;20589;-17
2022/08/04 05:53:27;;;;;;;16.48;3.17;;;;;;;;;;5070787;28;20240;-17
2022/08/04 05:55:55;;;;;;;11.10;3.35;;;;;;;;;;5071034;28;20775;-17
2022/08/04 05:58:26;;;;;;;11.90;3.20;;;;;;;;;;5070431;28;20241;-16
2022/08/04 06:00:53;;;;;;;9.07;3.90;;;;;;;;;;5062746;28;20230;-16
2022/08/04 06:03:21;;;;;;;15.02;4.68;;;;;;;;;;5070569;28;20237;-16
2022/08/04 06:05:48;;;;;;;11.50;4.07;;;;;;;;;;5070393;28;20780;-16
2022/08/04 06:08:18;;;;;;;15.93;4.22;;;;;;;;;;5070475;28;20225;-16
2022/08/04 06:10:45;;;;;;;15.52;4.60;;;;;;;;;;5060152;28;20313;-16
2022/08/04 06:13:14;;;;;;;17.23;4.57;;;;;;;;;;5068046;28;20229;-16
2022/08/04 06:16:01;;;;;;;11.73;3.65;;;;;;;;;;5060370;28;20262;-16
2022/08/04 06:18:29;;;;;;;14.20;4.03;;;;;;;;;;5073367;28;20316;-16
2022/08/04 06:21:16;;;;;;;15.55;4.13;;;;;;;;;;5064635;28;20234;-16
2022/08/04 06:23:45;;;;;;;14.93;4.72;;;;;;;;;;5053931;28;20631;-16
2022/08/04 06:26:30;;;;;;;9.48;3.35;;;;;;;;;;5049665;28;20234;-16
2022/08/04 06:28:57;;;;;;;13.50;3.85;;;;;;;;;;5037974;28;20234;-16
2022/08/04 06:31:41;;;;;;;10.55;4.38;;;;;;;;;;5046168;28;20226;-16
2022/08/04 06:34:29;;;;;;;14.73;3.75;;;;;;;;;;5052322;28;20229;-16
2022/08/04 06:36:56;;;;;;;11.20;3.60;;;;;;;;;;5053348;28;20237;-16
2022/08/04 06:39:25;;;;;;;13.95;3.70;;;;;;;;;;5045267;28;20227;-16
2022/08/04 06:41:53;;;;;;;11.73;4.20;;;;;;;;;;5044596;28;20235;-16
2022/08/04 06:44:40;;;;;;;9.57;4.00;;;;;;;;;;5042868;28;20231;-16
2022/08/04 06:47:08;;;;;;;11.40;4.40;;;;;;;;;;5046995;28;20234;-16
2022/08/04 06:49:40;;;;;;;11.95;3.58;;;;;;;;;;5052459;28;20226;-17
2022/08/04 06:52:21;;;;;;;11.45;3.75;;;;;;;;;;5044101;28;20748;-17
2022/08/04 06:54:50;;;;;;;12.20;3.67;;;;;;;;;;5059436;28;20230;-17
2022/08/04 06:57:19;;;;;;;11.25;4.25;;;;;;;;;;5052504;28;20240;-17
2022/08/04 06:59:47;;;;;;;15.90;3.90;;;;;;;;;;5058239;28;20685;-17
2022/08/04 07:02:15;;;;;;;13.68;3.53;;;;;;;;;;5067256;28;20235;-17
2022/08/04 07:04:42;;;;;;;10.27;3.60;;;;;;;;;;5072999;28;20232;-17
2022/08/04 07:07:10;;;;;;;12.95;3.92;;;;;;;;;;5065085;28;20320;-17
2022/08/04 07:09:37;;;;;;;12.05;3.00;;;;;;;;;;5073390;28;20981;-17
2022/08/04 07:12:07;;;;;;;7.35;3.55;;;;;;;;;;5062783;28;20228;-17
2022/08/04 07:14:35;;;;;;;10.30;3.63;;;;;;;;;;5069852;28;20238;-17
2022/08/04 07:17:02;;;;;;;11.48;3.80;;;;;;;;;;5053497;28;20230;-17
2022/08/04 07:19:30;;;;;;;14.23;4.05;;;;;;;;;;5053075;28;20237;-17
2022/08/04 07:21:58;;;;;;;11.95;3.22;;;;;;;;;;5071838;28;20251;-17
2022/08/04 07:24:45;;;;;;;9.50;3.08;;;;;;;;;;5069322;28;20248;-17
2022/08/04 07:27:14;;;;;;;10.65;3.50;;;;;;;;;;5055170;28;20237;-17
2022/08/04 07:29:41;;;;;;;13.50;3.50;;;;;;;;;;5068035;28;21015;-17
2022/08/04 07:32:09;;;;;;;9.35;3.47;;;;;;;;;;5051021;28;20234;-17
2022/08/04 07:34:37;;;;;;;17.13;4.13;;;;;;;;;;5052331;28;20244;-17
2022/08/04 07:37:05;;;;;;;11.48;3.72;;;;;;;;;;5048329;28;20705;-17
2022/08/04 07:39:32;;;;;;;17.23;3.67;;;;;;;;;;5035755;28;20721;-17
2022/08/04 07:42:16;;;;;;;17.08;4.57;;;;;;;;;;5044180;28;20300;-17
2022/08/04 07:44:43;;;;;;;10.52;3.67;;;;;;;;;;5049063;28;20238;-17
2022/08/04 07:47:11;;;;;;;15.20;4.22;;;;;;;;;;5051414;28;20256;-17
2022/08/04 07:49:39;;;;;;;11.65;4.25;;;;;;;;;;5046743;28;20233;-17
2022/08/04 07:52:24;;;;;;;14.45;4.10;;;;;;;;;;5047340;28;20596;-17
2022/08/04 07:54:51;;;;;;;12.20;4.20;;;;;;;;;;5041578;28;20235;-17
2022/08/04 07:57:20;;;;;;;13.00;3.90;;;;;;;;;;5051574;28;20230;-17
2022/08/04 08:00:08;;;;;;;10.75;3.95;;;;;;;;;;5047981;28;20238;-17
2022/08/04 08:02:35;;;;;;;11.10;3.70;;;;;;;;;;5047218;28;20240;-17
2022/08/04 08:05:03;;;;;;;11.73;4.55;;;;;;;;;;5044051;28;20238;-17
2022/08/04 08:07:30;;;;;;;8.38;4.45;;;;;;;;;;5045888;28;20226;-17
2022/08/04 08:09:58;;;;;;;14.32;4.15;;;;;;;;;;5046258;28;20242;-17
2022/08/04 08:12:26;;;;;;;10.57;4.20;;;;;;;;;;5046531;28;20658;-17
2022/08/04 08:15:14;;;;;;;16.88;3.85;;;;;;;;;;5043378;28;20234;-17
2022/08/04 08:17:42;;;;;;;11.25;3.67;;;;;;;;;;5041892;28;20234;-17
2022/08/04 08:20:27;;;;;;;12.13;4.22;;;;;;;;;;5035660;28;20238;-17
2022/08/04 08:22:56;;;;;;;14.77;4.50;;;;;;;;;;5037856;28;20246;-17
2022/08/04 08:25:24;;;;;;;13.02;4.63;;;;;;;;;;5035163;28;20234;-17
2022/08/04 08:27:52;;;;;;;12.68;4.18;;;;;;;;;;5037643;28;20222;-17
2022/08/04 08:30:23;;;;;;;9.98;4.63;;;;;;;;;;5034741;28;20725;-17
2022/08/04 08:32:58;;;;;;;10.32;4.05;;;;;;;;;;5035841;28;20289;-17
2022/08/04 08:35:25;;;;;;;13.50;4.10;;;;;;;;;;5039002;28;20244;-17
2022/08/04 08:37:55;;;;;;;15.90;4.10;;;;;;;;;;5039402;28;20230;-17
2022/08/04 08:40:26;;;;;;;14.20;4.13;;;;;;;;;;5038670;28;20234;-17
2022/08/04 08:43:22;;;;;;;15.10;4.68;;;;;;;;;;5038472;28;20725;-17
2022/08/04 08:46:27;;;;;;;14.57;4.47;;;;;;;;;;5040795;28;20296;-17
2022/08/04 08:49:28;;;;;;;10.00;3.67;;;;;;;;;;5041864;28;20235;-17
2022/08/04 08:52:20;;;;;;;14.32;4.60;;;;;;;;;;5038212;28;20235;-17
2022/08/04 08:55:22;;;;;;;13.70;4.40;;;;;;;;;;5033379;28;20242;-17
2022/08/04 08:57:55;;;;;;;15.00;4.93;;;;;;;;;;5036711;28;20610;-17
2022/08/04 09:00:33;;;;;;;12.18;4.88;;;;;;;;;;5049326;28;20920;-17
2022/08/04 09:03:08;;;;;;;8.20;4.45;;;;;;;;;;5050743;28;20222;-17
2022/08/04 09:05:39;;;;;;;10.18;4.07;;;;;;;;;;5049842;28;20241;-17
2022/08/04 09:08:10;;;;;;;14.32;3.80;;;;;;;;;;5050623;28;20269;-17
2022/08/04 09:10:39;;;;;;;12.80;4.75;;;;;;;;;;5051057;28;20230;-17
2022/08/04 09:13:08;;;;;;;12.57;3.72;;;;;;;;;;5051822;28;21018;-17
2022/08/04 09:15:39;;;;;;;11.95;3.67;;;;;;;;;;5055170;28;21065;-17
2022/08/04 09:18:07;;;;;;;11.05;3.90;;;;;;;;;;5064014;28;20229;-17
2022/08/04 09:20:37;;;;;;;9.88;4.00;;;;;;;;;;5051015;28;20329;-17
2022/08/04 09:23:07;;;;;;;11.90;3.75;;;;;;;;;;5059210;28;20245;-17
2022/08/04 09:25:34;;;;;;;12.07;3.85;;;;;;;;;;5050749;28;20249;-18
2022/08/04 09:28:02;;;;;;;11.48;3.42;;;;;;;;;;5054535;28;20233;-17
2022/08/04 09:30:39;;;;;;;12.60;3.75;;;;;;;;;;5050080;28;20714;-17
2022/08/04 09:33:08;;;;;;;9.90;3.70;;;;;;;;;;5068821;28;20237;-17
2022/08/04 09:35:38;;;;;;;6.78;3.47;;;;;;;;;;5071052;28;20248;-17
2022/08/04 09:38:08;;;;;;;11.77;3.50;;;;;;;;;;5071138;28;20980;-17
2022/08/04 09:40:37;;;;;;;8.35;3.03;;;;;;;;;;5059358;28;20229;-17
2022/08/04 09:43:28;;;;;;;10.48;3.40;;;;;;;;;;5068925;28;20312;-17
2022/08/04 09:46:18;;;;;;;8.75;3.50;;;;;;;;;;5056831;28;20230;-17
2022/08/04 09:48:50;;;;;;;13.82;3.80;;;;;;;;;;5057515;28;20291;-17
2022/08/04 09:51:21;;;;;;;12.20;4.32;;;;;;;;;;5059768;28;20236;-17
2022/08/04 09:53:52;;;;;;;11.02;3.40;;;;;;;;;;5042674;28;20450;-17
2022/08/04 09:56:20;;;;;;;11.23;3.90;;;;;;;;;;5070231;28;21038;-17
2022/08/04 09:58:50;;;;;;;8.18;3.53;;;;;;;;;;5070690;28;20228;-17
2022/08/04 10:01:19;;;;;;;9.65;3.67;;;;;;;;;;5059718;28;20234;-17
2022/08/04 10:03:50;;;;;;;6.57;3.13;;;;;;;;;;5069598;28;20965;-17
2022/08/04 10:06:26;;;;;;;14.32;3.58;;;;;;;;;;5070648;28;20724;-17
2022/08/04 10:09:08;;;;;;;9.63;3.72;;;;;;;;;;5070548;28;20229;-17
2022/08/04 10:11:39;;;;;;;10.27;3.65;;;;;;;;;;5064384;28;20320;-17
2022/08/04 10:14:27;;;;;;;10.43;3.90;;;;;;;;;;5058100;28;20233;-17
2022/08/04 10:16:58;;;;;;;10.63;3.72;;;;;;;;;;5069246;28;20236;-17
2022/08/04 10:19:25;;;;;;;9.57;3.63;;;;;;;;;;5063415;28;20238;-17
2022/08/04 10:21:55;;;;;;;8.70;3.50;;;;;;;;;;5062747;28;20262;-17
2022/08/04 10:24:48;;;;;;;8.40;3.05;;;;;;;;;;5051500;28;20237;-17
2022/08/04 10:27:16;;;;;;;7.88;3.75;;;;;;;;;;5070758;28;20225;-17
2022/08/04 10:29:44;;;;;;;11.07;3.25;;;;;;;;;;5070558;28;20252;-17
2022/08/04 10:32:14;;;;;;;8.13;3.03;;;;;;;;;;5063267;28;20225;-17
2022/08/04 10:34:43;;;;;;;9.70;3.20;;;;;;;;;;5067446;28;20766;-17
2022/08/04 10:37:13;;;;;;;6.80;3.00;;;;;;;;;;5070259;28;20688;-17
2022/08/04 10:39:42;;;;;;;10.45;3.20;;;;;;;;;;5069912;28;20979;-17
2022/08/04 10:42:13;;;;;;;8.40;3.00;;;;;;;;;;5070032;28;20241;-17
2022/08/04 10:44:42;;;;;;;7.65;3.28;;;;;;;;;;5070157;28;20244;-17
2022/08/04 10:47:13;;;;;;;12.90;3.60;;;;;;;;;;5058337;28;20226;-17
2022/08/04 10:49:43;;;;;;;9.88;3.35;;;;;;;;;;5070606;28;20693;-17
2022/08/04 10:52:11;;;;;;;9.25;3.67;;;;;;;;;;5069986;28;20237;-17
2022/08/04 10:54:43;;;;;;;10.05;3.10;;;;;;;;;;5059135;28;20241;-17
2022/08/04 10:57:12;;;;;;;6.60;2.90;;;;;;;;;;5061380;28;20231;-17
2022/08/04 10:59:43;;;;;;;8.35;2.83;;;;;;;;;;5069901;28;20309;-17
2022/08/04 11:02:16;;;;;;;5.88;2.83;;;;;;;;;;5058735;28;20237;-17
2022/08/04 11:04:44;;;;;;;5.15;2.70;;;;;;;;;;5073376;28;20239;-17
2022/08/04 11:07:11;;;;;;;7.43;2.95;;;;;;;;;;5071535;28;20607;-17
2022/08/04 11:09:39;;;;;;;4.95;2.63;;;;;;;;;;5064369;28;20324;-17
2022/08/04 11:12:06;;;;;;;4.63;2.47;;;;;;;;;;5072623;28;21171;-17
2022/08/04 11:14:35;;;;;;;6.03;2.90;;;;;;;;;;5073371;28;21106;-18
2022/08/04 11:17:06;;;;;;;10.43;3.00;;;;;;;;;;5061731;28;21050;-18
2022/08/04 11:19:35;;;;;;;5.40;3.03;;;;;;;;;;5068528;28;20325;-17
2022/08/04 11:22:14;;;;;;;6.18;3.03;;;;;;;;;;5072397;28;20244;-17
2022/08/04 11:24:44;;;;;;;5.57;3.20;;;;;;;;;;5073266;28;20245;-17
2022/08/04 11:27:11;;;;;;;6.15;3.03;;;;;;;;;;5073117;28;20232;-17
2022/08/04 11:29:41;;;;;;;15.30;4.38;;;;;;;;;;5071179;28;20672;-17
2022/08/04 11:32:08;;;;;;;15.52;4.60;;;;;;;;;;5065822;28;20233;-17
2022/08/04 11:34:37;;;;;;;8.45;3.63;;;;;;;;;;5073028;28;20249;-17
2022/08/04 11:37:09;;;;;;;11.98;3.67;;;;;;;;;;5072376;28;20232;-17
2022/08/04 11:39:42;;;;;;;12.05;4.20;;;;;;;;;;5072739;28;20692;-17
2022/08/04 11:42:13;;;;;;;11.20;3.88;;;;;;;;;;5063275;28;20715;-17
2022/08/04 11:44:41;;;;;;;8.85;3.72;;;;;;;;;;5073265;28;20225;-17
2022/08/04 11:47:09;;;;;;;14.60;3.72;;;;;;;;;;5055726;28;20234;-17
2022/08/04 11:49:40;;;;;;;10.27;3.38;;;;;;;;;;5066208;28;20243;-17
2022/08/04 11:52:24;;;;;;;7.70;3.55;;;;;;;;;;5051050;28;20261;-17
2022/08/04 11:54:51;;;;;;;7.55;3.10;;;;;;;;;;5072312;28;20226;-17
2022/08/04 11:57:21;;;;;;;7.35;2.90;;;;;;;;;;5059456;28;20240;-17
2022/08/04 12:00:03;;;;;;;7.70;2.78;;;;;;;;;;5072564;28;20225;-17
2022/08/04 12:03:00;;;;;;;7.80;3.00;;;;;;;;;;5043594;28;20234;-17
2022/08/04 12:05:31;;;;;;;7.13;2.75;;;;;;;;;;5070746;28;20239;-17
2022/08/04 12:08:19;;;;;;;10.77;3.10;;;;;;;;;;5072419;28;20225;-17
2022/08/04 12:10:48;;;;;;;7.95;2.42;;;;;;;;;;5072392;28;20340;-17
2022/08/04 12:13:20;;;;;;;8.85;3.20;;;;;;;;;;5069795;28;20225;-17
2022/08/04 12:15:50;;;;;;;8.93;2.78;;;;;;;;;;5067237;28;20321;-17
2022/08/04 12:18:19;;;;;;;7.30;2.83;;;;;;;;;;5064225;28;20229;-17
2022/08/04 12:20:49;;;;;;;7.68;2.63;;;;;;;;;;5072149;28;20874;-18
2022/08/04 12:23:17;;;;;;;7.60;2.67;;;;;;;;;;5071865;28;20233;-17
2022/08/04 12:25:50;;;;;;;5.95;2.45;;;;;;;;;;5060523;28;20237;-17
2022/08/04 12:28:18;;;;;;;5.22;2.65;;;;;;;;;;5071474;28;20229;-17
2022/08/04 12:30:47;;;;;;;4.55;2.40;;;;;;;;;;5066231;28;20234;-17
2022/08/04 12:33:29;;;;;;;10.88;2.55;;;;;;;;;;5045124;28;20283;-17
2022/08/04 12:36:19;;;;;;;7.82;3.20;;;;;;;;;;5070705;28;20617;-17
2022/08/04 12:38:49;;;;;;;9.75;2.78;;;;;;;;;;5071845;28;20248;-17
2022/08/04 12:41:18;;;;;;;8.75;2.42;;;;;;;;;;5071992;28;20265;-17
2022/08/04 12:43:46;;;;;;;4.15;2.33;;;;;;;;;;5071807;28;20244;-17
2022/08/04 12:46:18;;;;;;;10.18;2.95;;;;;;;;;;5055784;28;20253;-17
2022/08/04 12:48:46;;;;;;;6.07;2.50;;;;;;;;;;5044602;28;20225;-17
2022/08/04 12:51:13;;;;;;;4.55;2.55;;;;;;;;;;5071736;28;20237;-17
2022/08/04 12:54:02;;;;;;;6.85;2.72;;;;;;;;;;5046223;28;20714;-17
2022/08/04 12:56:29;;;;;;;4.57;2.38;;;;;;;;;;5071410;28;20229;-17
2022/08/04 12:59:00;;;;;;;5.28;2.25;;;;;;;;;;5061836;28;20239;-17
2022/08/04 13:01:28;;;;;;;7.43;2.70;;;;;;;;;;5060008;28;20226;-17
2022/08/04 13:04:16;;;;;;;4.72;2.30;;;;;;;;;;5048151;28;20234;-17
2022/08/04 13:06:43;;;;;;;7.22;2.30;;;;;;;;;;5071526;28;20233;-17
2022/08/04 13:09:14;;;;;;;5.72;2.30;;;;;;;;;;5068535;28;20229;-17
2022/08/04 13:11:46;;;;;;;3.10;1.90;;;;;;;;;;5071219;28;20323;-17
2022/08/04 13:14:14;;;;;;;10.55;2.25;;;;;;;;;;5043596;28;20229;-17
2022/08/04 13:16:56;;;;;;;10.20;2.55;;;;;;;;;;5060522;28;20240;-17
2022/08/04 13:19:23;;;;;;;11.30;2.75;;;;;;;;;;5067674;28;20829;-16
2022/08/04 13:21:52;;;;;;;9.20;2.20;;;;;;;;;;5063846;28;20237;-17
2022/08/04 13:24:31;;;;;;;10.63;2.50;;;;;;;;;;5044438;28;20232;-17
2022/08/04 13:27:03;;;;;;;7.63;2.25;;;;;;;;;;5071179;28;20238;-16
2022/08/04 13:29:32;;;;;;;9.15;2.58;;;;;;;;;;5063270;28;20715;-16
2022/08/04 13:32:23;;;;;;;5.75;2.88;;;;;;;;;;5063168;28;20241;-16
2022/08/04 13:34:51;;;;;;;4.43;2.00;;;;;;;;;;5070877;28;20229;-16
2022/08/04 13:37:20;;;;;;;8.77;2.42;;;;;;;;;;5060768;28;20653;-17
2022/08/04 13:39:50;;;;;;;8.35;2.22;;;;;;;;;;5067656;28;20643;-16
2022/08/04 13:42:22;;;;;;;3.38;2.00;;;;;;;;;;5069785;28;20230;-16
2022/08/04 13:44:52;;;;;;;7.78;2.38;;;;;;;;;;5066346;28;20604;-16
2022/08/04 13:47:20;;;;;;;6.70;2.22;;;;;;;;;;5060894;28;20236;-16
2022/08/04 13:50:03;;;;;;;4.10;2.35;;;;;;;;;;5070874;28;20688;-16
2022/08/04 13:52:37;;;;;;;5.80;2.10;;;;;;;;;;5065387;28;20238;-16
2022/08/04 13:55:07;;;;;;;4.07;2.20;;;;;;;;;;5067269;28;20983;-16
2022/08/04 13:57:35;;;;;;;5.55;2.13;;;;;;;;;;5070557;28;20274;-16
2022/08/04 14:00:04;;;;;;;7.40;2.28;;;;;;;;;;5070827;28;20740;-16
2022/08/04 14:02:33;;;;;;;5.28;2.33;;;;;;;;;;5046511;28;20239;-16
2022/08/04 14:05:02;;;;;;;4.10;2.00;;;;;;;;;;5068318;28;20324;-16
2022/08/04 14:07:29;;;;;;;8.07;2.05;;;;;;;;;;5070450;28;20241;-16
2022/08/04 14:09:57;;;;;;;4.35;2.30;;;;;;;;;;5070194;28;20237;-16
2022/08/04 14:12:31;;;;;;;5.75;1.92;;;;;;;;;;5070744;28;20245;-17
2022/08/04 14:15:32;;;;;;;3.33;1.95;;;;;;;;;;5060361;28;20649;-17
2022/08/04 14:18:20;;;;;;;6.65;1.85;;;;;;;;;;5059187;28;20238;-17
2022/08/04 14:21:01;;;;;;;7.20;2.15;;;;;;;;;;5068843;28;20268;-18
2022/08/04 14:23:28;;;;;;;3.70;2.00;;;;;;;;;;5071053;28;20233;-15
2022/08/04 14:26:00;;;;;;;4.07;2.03;;;;;;;;;;5067513;28;20368;-17
2022/08/04 14:28:28;;;;;;;5.15;1.90;;;;;;;;;;5070248;28;20384;-17
2022/08/04 14:31:16;;;;;;;4.00;2.13;;;;;;;;;;5056137;28;20230;-17
2022/08/04 14:33:44;;;;;;;6.05;2.10;;;;;;;;;;5070725;28;21040;-17
2022/08/04 14:36:38;;;;;;;3.65;1.90;;;;;;;;;;5065908;28;20238;-17
2022/08/04 14:39:38;;;;;;;7.82;2.22;;;;;;;;;;5067793;28;20958;-17
2022/08/04 14:42:06;;;;;;;5.25;2.13;;;;;;;;;;5049172;28;20728;-17
2022/08/04 14:44:51;;;;;;;5.50;2.10;;;;;;;;;;5067747;28;20230;-17
2022/08/04 14:47:18;;;;;;;3.47;2.20;;;;;;;;;;5055004;28;20677;-17
2022/08/04 14:49:53;;;;;;;8.35;2.20;;;;;;;;;;5068255;28;20233;-17
2022/08/04 14:52:22;;;;;;;14.02;2.42;;;;;;;;;;5073491;28;20726;-17
2022/08/04 14:54:50;;;;;;;4.88;2.22;;;;;;;;;;5073449;28;20229;-17
2022/08/04 14:57:17;;;;;;;6.18;2.05;;;;;;;;;;5073966;28;20766;-17
2022/08/04 14:59:46;;;;;;;6.47;2.00;;;;;;;;;;5071912;28;20972;-17
2022/08/04 15:02:28;;;;;;;4.95;2.20;;;;;;;;;;5059950;28;20896;-16
2022/08/04 15:04:56;;;;;;;6.35;2.17;;;;;;;;;;5073310;28;20237;-17
2022/08/04 15:07:24;;;;;;;5.47;1.92;;;;;;;;;;5052476;28;20349;-17
2022/08/04 15:09:51;;;;;;;4.78;2.10;;;;;;;;;;5047255;28;20276;-17
2022/08/04 15:12:19;;;;;;;4.57;1.98;;;;;;;;;;5044181;28;20300;-16
2022/08/04 15:14:48;;;;;;;2.88;1.85;;;;;;;;;;5042387;28;20370;-17
2022/08/04 15:17:16;;;;;;;5.40;2.10;;;;;;;;;;5043429;28;20736;-17
2022/08/04 15:19:56;;;;;;;5.60;2.20;;;;;;;;;;5044061;28;20239;-17